This is the latest recevied weather packets stored in our database for station/object N4AR. If no packets are shown the sender has not sent any weather packets the latest 10 day(s).
| Time | Temp. | Humidity | Pressure | Rain* | Wind** | Luminosity | Snow |
|---|---|---|---|---|---|---|---|
| 1777733012 | 11.67° C | 77% | 1014.5 hPa | 0 mm | - | 94 W/m² | - |
| 1777732708 | 12.22° C | 74% | 1014.3 hPa | 0 mm | - | 70 W/m² | - |
| 1777732405 | 12.78° C | 72% | 1014.1 hPa | 0 mm | - | 71 W/m² | - |
| 1777732103 | 12.78° C | 69% | 1014.1 hPa | 0 mm | - | 56 W/m² | - |
| 1777731800 | 12.78° C | 66% | 1013.9 hPa | 0 mm | - | 82 W/m² | - |
| 1777731496 | 13.33° C | 65% | 1014 hPa | 0 mm | - | 74 W/m² | - |
| 1777731195 | 13.33° C | 64% | 1014 hPa | 0 mm | - | 78 W/m² | - |
| 1777730892 | 13.33° C | 67% | 1013.8 hPa | 0 mm | - | 82 W/m² | - |
| 1777730590 | 13.33° C | 67% | 1013.7 hPa | 0 mm | - | 94 W/m² | - |
| 1777730286 | 13.33° C | 66% | 1013.6 hPa | 0 mm | - | 89 W/m² | - |
| 1777729983 | 13.33° C | 67% | 1013.6 hPa | 0 mm | - | 79 W/m² | - |
| 1777729678 | 13.33° C | 66% | 1013.5 hPa | 0 mm | - | 86 W/m² | - |
| 1777729376 | 13.33° C | 68% | 1013.2 hPa | 0 mm | - | 117 W/m² | - |
| 1777729072 | 13.33° C | 69% | 1013.4 hPa | 0 mm | - | 108 W/m² | - |
| 1777728769 | 13.33° C | 70% | 1013.2 hPa | 0 mm | - | 85 W/m² | - |
| 1777728465 | 13.33° C | 71% | 1013.4 hPa | 0 mm | - | 68 W/m² | - |
| 1777728163 | 13.33° C | 71% | 1013.4 hPa | 0 mm | - | 75 W/m² | - |
| 1777727859 | 13.33° C | 70% | 1013.6 hPa | 0 mm | - | 60 W/m² | - |
| 1777727557 | 13.33° C | 71% | 1013.2 hPa | 0 mm | - | 118 W/m² | - |
| 1777727254 | 13.33° C | 72% | 1013.1 hPa | 0 mm | - | 77 W/m² | - |
| 1777726951 | 13.33° C | 70% | 1013 hPa | 0 mm | - | 95 W/m² | - |
| 1777726647 | 13.33° C | 71% | 1013.1 hPa | 0 mm | - | 95 W/m² | - |
| 1777726346 | 13.33° C | 70% | 1013.1 hPa | 0 mm | - | 78 W/m² | - |
| 1777726042 | 13.33° C | 72% | 1013.2 hPa | 0 mm | - | 74 W/m² | - |
| 1777725739 | 13.33° C | 71% | 1013.3 hPa | 0 mm | - | 62 W/m² | - |
* Rain latest hour (hover to see other rain measurements)
** Current wind speed in m/s (hover to see current wind gust speed)